Time;durP1;ratioP1;P1;durP2;ratioP2;P2;SDS_P1;SDS_P2;PMS_P1;PMS_P2;Temp;Humidity;BMP_temperature;BMP_pressure;BME280_temperature;BME280_humidity;BME280_pressure;Samples;Min_cycle;Max_cycle;Signal;HPM_P1;HPM_P2
2022/05/04 00:00:22;;;;;;;6.60;1.63;;;19.30;70.90;;;;;;5072594;28;20230;-79
2022/05/04 00:02:49;;;;;;;6.20;1.47;;;19.50;70.70;;;;;;5060040;28;20183;-82
2022/05/04 00:05:17;;;;;;;5.23;1.80;;;19.60;69.80;;;;;;5053538;28;20215;-84
2022/05/04 00:07:45;;;;;;;6.63;1.83;;;19.60;69.90;;;;;;5059255;28;20214;-78
2022/05/04 00:10:13;;;;;;;6.77;1.80;;;19.70;70.00;;;;;;5073070;28;20174;-79
2022/05/04 00:12:40;;;;;;;4.87;1.53;;;19.90;69.60;;;;;;5072101;28;20195;-80
2022/05/04 00:15:09;;;;;;;4.63;1.43;;;20.00;69.10;;;;;;5072108;28;20528;-79
2022/05/04 00:17:36;;;;;;;4.77;1.43;;;20.10;68.70;;;;;;5073723;28;20549;-87
2022/05/04 00:20:04;;;;;;;3.97;1.50;;;20.20;67.70;;;;;;5073582;28;20252;-79
2022/05/04 00:22:32;;;;;;;2.53;1.43;;;20.30;67.80;;;;;;5071372;28;20183;-78
2022/05/04 00:24:59;;;;;;;6.77;1.80;;;20.40;67.60;;;;;;5072441;28;20279;-79
2022/05/04 00:27:27;;;;;;;3.17;1.23;;;20.60;67.70;;;;;;5092923;28;20175;-82
2022/05/04 00:29:54;;;;;;;2.33;1.30;;;20.70;66.50;;;;;;5094944;28;20177;-85
2022/05/04 00:32:21;;;;;;;2.93;1.37;;;20.70;66.20;;;;;;5097233;28;20249;-82
2022/05/04 00:34:49;;;;;;;4.83;1.40;;;20.80;66.00;;;;;;5077096;28;20171;-84
2022/05/04 00:37:17;;;;;;;6.63;1.30;;;21.00;65.40;;;;;;5077613;28;20179;-82
2022/05/04 00:39:47;;;;;;;4.63;1.63;;;21.10;65.20;;;;;;5077823;28;20187;-80
2022/05/04 00:42:21;;;;;;;6.00;1.50;;;21.20;64.60;;;;;;5064749;28;20597;-82
2022/05/04 00:44:50;;;;;;;5.30;1.47;;;21.20;64.20;;;;;;5079541;28;20691;-80
2022/05/04 00:47:19;;;;;;;2.80;1.57;;;21.30;63.70;;;;;;5094241;28;20186;-76
2022/05/04 00:49:48;;;;;;;19.13;2.33;;;21.40;63.50;;;;;;5095402;28;20212;-79
2022/05/04 00:52:17;;;;;;;3.70;1.27;;;21.50;61.40;;;;;;5087259;28;20180;-82
2022/05/04 00:54:47;;;;;;;3.63;1.30;;;21.70;62.40;;;;;;5075128;28;20225;-79
2022/05/04 00:57:17;;;;;;;4.07;1.80;;;21.80;62.00;;;;;;5073866;28;20800;-78
2022/05/04 00:59:45;;;;;;;6.17;1.80;;;22.00;61.10;;;;;;5077638;28;20194;-79
2022/05/04 01:02:12;;;;;;;2.07;1.20;;;22.20;61.80;;;;;;5057245;28;20697;-85
2022/05/04 01:04:39;;;;;;;2.73;1.60;;;22.30;59.70;;;;;;5077138;28;20221;-77
2022/05/04 01:07:07;;;;;;;3.57;1.80;;;22.30;60.00;;;;;;5073372;28;20229;-80
2022/05/04 01:09:35;;;;;;;2.83;1.30;;;22.50;60.40;;;;;;5067488;28;20274;-81
2022/05/04 01:12:02;;;;;;;3.67;1.40;;;22.70;59.00;;;;;;5073230;28;20187;-84
2022/05/04 01:14:29;;;;;;;2.57;1.20;;;22.80;57.50;;;;;;5068745;28;20645;-80
2022/05/04 01:16:57;;;;;;;2.83;1.40;;;22.90;57.90;;;;;;5069254;28;20615;-81
2022/05/04 01:19:24;;;;;;;4.37;1.07;;;22.90;57.40;;;;;;5071872;28;20567;-80
2022/05/04 01:21:51;;;;;;;5.13;2.13;;;23.00;57.20;;;;;;5065739;28;20233;-81
2022/05/04 01:24:19;;;;;;;3.97;1.57;;;23.20;57.20;;;;;;5074950;28;20188;-82
2022/05/04 01:26:46;;;;;;;3.30;1.67;;;23.20;56.70;;;;;;5073819;28;20202;-84
2022/05/04 01:29:14;;;;;;;3.63;1.50;;;23.30;56.80;;;;;;5070090;28;20202;-83
2022/05/04 01:31:42;;;;;;;4.23;1.30;;;23.40;55.20;;;;;;5067525;28;20187;-77
2022/05/04 01:34:09;;;;;;;7.20;1.30;;;23.50;54.60;;;;;;5068537;28;20210;-80
2022/05/04 01:36:37;;;;;;;3.97;1.37;;;23.70;53.10;;;;;;5070331;28;20179;-82
2022/05/04 01:39:04;;;;;;;3.53;1.10;;;23.80;53.60;;;;;;5070554;28;20258;-75
2022/05/04 01:44:17;;;;;;;4.57;1.20;;;24.30;51.40;;;;;;5070784;28;20245;-77
2022/05/04 01:46:44;;;;;;;4.50;1.23;;;24.50;51.80;;;;;;5068188;28;20191;-78
2022/05/04 01:49:11;;;;;;;3.63;1.43;;;24.60;50.10;;;;;;5063921;28;20182;-77
2022/05/04 01:51:39;;;;;;;2.90;1.40;;;24.50;50.90;;;;;;5071678;28;20597;-78
2022/05/04 01:54:06;;;;;;;3.23;1.37;;;24.70;50.80;;;;;;5071999;28;20171;-78
2022/05/04 01:56:34;;;;;;;2.90;1.10;;;24.90;50.10;;;;;;5064437;28;20589;-85
2022/05/04 01:59:01;;;;;;;4.17;1.20;;;25.10;49.20;;;;;;5072232;28;20183;-82
2022/05/04 02:01:30;;;;;;;5.93;2.00;;;25.30;48.30;;;;;;5073230;28;20183;-79
2022/05/04 02:03:59;;;;;;;2.30;1.03;;;25.50;48.20;;;;;;5064409;28;20180;-78
2022/05/04 02:06:27;;;;;;;1.87;1.00;;;25.30;45.90;;;;;;5070804;28;20230;-78
2022/05/04 02:08:54;;;;;;;3.87;1.40;;;25.10;46.90;;;;;;5069107;28;20187;-78
2022/05/04 02:11:21;;;;;;;5.20;1.40;;;25.30;46.10;;;;;;5073096;28;20175;-78
2022/05/04 02:13:49;;;;;;;3.33;1.37;;;25.60;45.40;;;;;;5073255;28;20187;-77
2022/05/04 02:16:16;;;;;;;4.80;1.23;;;25.50;44.30;;;;;;5070460;28;20305;-79
2022/05/04 02:18:44;;;;;;;1.67;1.33;;;25.30;46.00;;;;;;5072548;28;20183;-77
2022/05/04 02:21:11;;;;;;;2.77;1.60;;;25.60;45.30;;;;;;5071589;28;20179;-76
2022/05/04 02:23:38;;;;;;;3.37;2.30;;;25.80;45.10;;;;;;5068920;28;20179;-76
2022/05/04 02:26:06;;;;;;;4.30;2.10;;;25.90;44.50;;;;;;5072902;28;20708;-76
2022/05/04 02:28:33;;;;;;;3.63;1.30;;;26.10;45.10;;;;;;5068037;28;20180;-74
2022/05/04 02:31:00;;;;;;;1.93;1.00;;;26.10;44.40;;;;;;5056500;28;20536;-75
2022/05/04 02:33:28;;;;;;;2.00;1.07;;;26.10;42.90;;;;;;5086717;28;20254;-77
2022/05/04 02:38:41;;;;;;;2.93;1.20;;;26.20;43.60;;;;;;5083769;28;20206;-76
2022/05/04 02:41:09;;;;;;;4.47;2.23;;;26.20;45.20;;;;;;5072972;28;20270;-79
2022/05/04 02:43:36;;;;;;;5.73;2.80;;;26.40;43.50;;;;;;5071271;28;20215;-78
2022/05/04 02:46:15;;;;;;;3.60;1.03;;;26.30;44.20;;;;;;5056242;28;20234;-76
2022/05/04 02:48:42;;;;;;;4.63;1.20;;;26.00;44.40;;;;;;5070660;28;20175;-74
2022/05/04 02:51:10;;;;;;;4.33;1.07;;;26.10;44.10;;;;;;5069641;28;20181;-79
2022/05/04 02:53:37;;;;;;;1.43;1.03;;;26.50;43.20;;;;;;5071786;28;20176;-82
2022/05/04 02:56:08;;;;;;;3.50;0.83;;;26.80;41.00;;;;;;5072663;28;20178;-76
2022/05/04 02:58:36;;;;;;;2.33;0.90;;;27.00;39.80;;;;;;5070729;28;20549;-76
2022/05/04 03:04:06;;;;;;;5.40;1.00;;;26.90;41.40;;;;;;5072723;28;20252;-81
2022/05/04 03:06:39;;;;;;;3.77;1.40;;;26.70;41.30;;;;;;5067788;28;20297;-76
2022/05/04 03:09:08;;;;;;;5.93;1.23;;;26.70;43.10;;;;;;5068663;28;20218;-79
2022/05/04 03:11:54;;;;;;;5.90;1.10;;;26.90;40.40;;;;;;5071522;28;20656;-77
2022/05/04 03:14:25;;;;;;;2.13;1.10;;;26.80;40.90;;;;;;5066985;28;20180;-77
2022/05/04 03:16:53;;;;;;;3.60;1.03;;;27.10;40.40;;;;;;5072173;28;20195;-77
2022/05/04 03:19:22;;;;;;;3.07;0.80;;;27.20;40.50;;;;;;5071386;28;20630;-78
2022/05/04 03:21:50;;;;;;;5.43;1.27;;;27.00;39.80;;;;;;5068128;28;20183;-79
2022/05/04 03:24:17;;;;;;;1.47;0.80;;;27.10;39.90;;;;;;5067516;28;20212;-80
2022/05/04 03:26:45;;;;;;;2.87;1.10;;;27.40;39.70;;;;;;5067159;28;20195;-81
2022/05/04 03:29:13;;;;;;;2.80;2.30;;;27.70;39.60;;;;;;5069539;28;20171;-77
2022/05/04 03:31:41;;;;;;;3.03;1.87;;;27.80;39.10;;;;;;5074422;28;20269;-76
2022/05/04 03:34:08;;;;;;;6.57;1.53;;;28.00;38.40;;;;;;5069939;28;20206;-82
2022/05/04 03:36:38;;;;;;;2.37;1.00;;;27.80;38.20;;;;;;5072004;28;20229;-78
2022/05/04 03:39:06;;;;;;;3.53;0.82;;;28.00;38.00;;;;;;5066666;28;20191;-77
2022/05/04 03:41:34;;;;;;;3.67;1.20;;;27.50;38.60;;;;;;5072996;28;20223;-77
2022/05/04 03:44:02;;;;;;;3.50;1.85;;;27.30;39.90;;;;;;5072421;28;20173;-79
2022/05/04 03:46:41;;;;;;;10.13;2.00;;;27.80;38.90;;;;;;5072502;28;20344;-77
2022/05/04 03:49:08;;;;;;;5.83;1.13;;;28.30;37.70;;;;;;5085122;28;20179;-77
2022/05/04 03:51:36;;;;;;;1.00;0.77;;;28.80;37.60;;;;;;5069617;28;20555;-88
2022/05/04 03:54:03;;;;;;;3.63;1.08;;;28.90;36.30;;;;;;5066811;28;20242;-82
2022/05/04 03:56:31;;;;;;;2.40;0.98;;;29.30;36.60;;;;;;5072534;28;20167;-88
2022/05/04 03:58:58;;;;;;;3.03;0.98;;;30.00;35.50;;;;;;5055280;28;20180;-81
2022/05/04 04:01:25;;;;;;;2.08;0.90;;;30.40;33.70;;;;;;5072434;28;20171;-78
2022/05/04 04:03:53;;;;;;;3.63;1.23;;;29.00;35.10;;;;;;5070554;28;20246;-81
2022/05/04 04:06:20;;;;;;;3.08;1.00;;;29.20;35.70;;;;;;5071193;28;20575;-81
2022/05/04 04:08:50;;;;;;;1.40;0.90;;;29.90;36.00;;;;;;5071287;28;20178;-82
2022/05/04 04:11:19;;;;;;;3.30;0.95;;;29.70;35.30;;;;;;5067827;28;20527;-82
2022/05/04 04:13:47;;;;;;;3.47;0.98;;;29.90;35.90;;;;;;5069250;28;20187;-79
2022/05/04 04:16:14;;;;;;;7.97;2.03;;;30.70;35.40;;;;;;5074515;28;20575;-76
2022/05/04 04:18:42;;;;;;;9.45;1.80;;;29.50;44.00;;;;;;5069767;28;20210;-79
2022/05/04 04:23:55;;;;;;;8.27;2.10;;;29.80;43.40;;;;;;5084994;28;20224;-80
2022/05/04 04:26:22;;;;;;;3.40;2.03;;;29.80;43.50;;;;;;5072475;28;20553;-78
2022/05/04 04:28:49;;;;;;;10.60;2.47;;;29.60;43.30;;;;;;5069954;28;20175;-78
2022/05/04 04:31:18;;;;;;;7.22;2.03;;;28.90;45.50;;;;;;5082239;28;20184;-79
2022/05/04 04:33:45;;;;;;;3.92;1.65;;;29.00;45.70;;;;;;5069792;28;20675;-78
2022/05/04 04:36:12;;;;;;;2.95;1.63;;;29.50;44.20;;;;;;5071680;28;20626;-79
2022/05/04 04:38:40;;;;;;;7.93;1.80;;;29.50;41.70;;;;;;5077245;28;20542;-82
2022/05/04 04:41:08;;;;;;;4.60;1.48;;;29.90;40.00;;;;;;5081296;28;20183;-79
2022/05/04 04:43:35;;;;;;;6.57;2.00;;;29.50;41.30;;;;;;5079908;28;20616;-77
2022/05/04 04:46:03;;;;;;;3.60;1.80;;;30.10;38.90;;;;;;5083292;28;20207;-78
2022/05/04 04:48:30;;;;;;;4.15;1.13;;;30.10;38.10;;;;;;5071351;28;20225;-80
2022/05/04 04:50:58;;;;;;;4.03;2.15;;;29.90;38.40;;;;;;5067915;28;20206;-80
2022/05/04 04:53:25;;;;;;;9.40;2.20;;;30.70;39.10;;;;;;5063818;28;20179;-76
2022/05/04 04:55:53;;;;;;;4.07;1.70;;;29.80;43.00;;;;;;5071933;28;20183;-78
2022/05/04 04:58:21;;;;;;;11.43;1.95;;;29.50;43.00;;;;;;5068990;28;20201;-80
2022/05/04 05:00:48;;;;;;;7.47;1.77;;;28.80;42.80;;;;;;5067759;28;20213;-84
2022/05/04 05:03:15;;;;;;;9.80;1.55;;;29.30;42.00;;;;;;5080216;28;20182;-80
2022/05/04 05:05:44;;;;;;;3.85;1.50;;;29.30;44.60;;;;;;5068493;28;20221;-80
2022/05/04 05:08:12;;;;;;;6.88;1.90;;;29.60;43.20;;;;;;5072185;28;20217;-81
2022/05/04 05:10:40;;;;;;;7.97;2.00;;;29.30;43.70;;;;;;5072052;28;20179;-81
2022/05/04 05:13:07;;;;;;;4.15;2.00;;;29.90;42.20;;;;;;5072063;28;20196;-84
2022/05/04 05:18:26;;;;;;;5.13;1.88;;;28.80;44.80;;;;;;5059892;28;20183;-82
2022/05/04 05:20:53;;;;;;;4.43;1.80;;;28.80;46.00;;;;;;5067640;28;20196;-81
2022/05/04 05:23:23;;;;;;;6.80;1.63;;;28.50;46.00;;;;;;5072208;28;20186;-81
2022/05/04 05:25:50;;;;;;;5.50;2.03;;;27.90;48.30;;;;;;5067655;28;20216;-82
2022/05/04 05:28:18;;;;;;;6.90;2.57;;;27.30;49.70;;;;;;5072071;28;20718;-82
2022/05/04 05:30:45;;;;;;;8.20;1.73;;;27.10;50.80;;;;;;5075618;28;20186;-83
2022/05/04 05:33:12;;;;;;;5.53;2.00;;;26.80;51.70;;;;;;5074679;28;20175;-82
2022/05/04 05:35:40;;;;;;;6.73;3.20;;;26.70;52.10;;;;;;5075390;28;20236;-84
2022/05/04 05:38:09;;;;;;;6.50;3.63;;;26.40;52.90;;;;;;5071641;28;20179;-81
2022/05/04 05:40:37;;;;;;;6.50;2.20;;;26.40;52.80;;;;;;5073153;28;20252;-85
2022/05/04 05:43:05;;;;;;;6.40;2.20;;;26.30;53.30;;;;;;5072817;28;20227;-84
2022/05/04 05:45:32;;;;;;;10.80;1.70;;;25.90;54.70;;;;;;5072391;28;20244;-84
2022/05/04 05:48:00;;;;;;;10.33;1.87;;;25.70;55.40;;;;;;5073315;28;20190;-83
2022/05/04 05:50:28;;;;;;;8.90;1.80;;;25.60;55.40;;;;;;5075037;28;20198;-81
2022/05/04 05:52:55;;;;;;;2.97;1.40;;;25.30;56.00;;;;;;5074467;28;20182;-84
2022/05/04 05:55:23;;;;;;;5.80;1.90;;;25.30;56.40;;;;;;5074119;28;20291;-81
2022/05/04 05:57:50;;;;;;;6.30;1.63;;;25.10;56.50;;;;;;5070498;28;20192;-82
2022/05/04 06:00:18;;;;;;;5.87;1.50;;;24.80;57.00;;;;;;5072906;28;20184;-84
2022/05/04 06:02:45;;;;;;;3.43;1.67;;;24.60;57.00;;;;;;5071934;28;20194;-81
2022/05/04 06:05:13;;;;;;;5.23;1.53;;;24.60;57.40;;;;;;5071390;28;20206;-80
2022/05/04 06:07:41;;;;;;;4.93;2.50;;;24.60;57.90;;;;;;5066754;28;20642;-85
2022/05/04 06:10:09;;;;;;;9.03;3.93;;;24.60;58.10;;;;;;5073499;28;20997;-81
2022/05/04 06:12:38;;;;;;;5.63;1.90;;;24.60;58.40;;;;;;5072390;28;20199;-79
2022/05/04 06:15:08;;;;;;;5.50;2.20;;;24.30;59.10;;;;;;5073176;28;20707;-79
2022/05/04 06:17:36;;;;;;;5.73;1.67;;;24.20;59.60;;;;;;5074330;28;20211;-79
2022/05/04 06:20:05;;;;;;;8.27;1.70;;;24.10;60.00;;;;;;5078502;28;20737;-81
2022/05/04 06:22:32;;;;;;;4.70;3.00;;;24.10;60.10;;;;;;5070844;28;20226;-81
2022/05/04 06:24:59;;;;;;;9.30;3.80;;;24.00;59.30;;;;;;5069176;28;20206;-77
2022/05/04 06:27:29;;;;;;;10.93;2.23;;;23.80;59.50;;;;;;5070718;28;20191;-79
2022/05/04 06:35:27;;;;;;;6.07;1.80;;;23.50;60.00;;;;;;5072820;28;20210;-79
2022/05/04 06:37:54;;;;;;;5.07;1.50;;;23.50;60.00;;;;;;5073146;28;20214;-79
2022/05/04 06:40:22;;;;;;;7.00;1.60;;;23.40;60.20;;;;;;5073203;28;20211;-83
2022/05/04 06:42:49;;;;;;;7.83;1.80;;;23.30;60.40;;;;;;5071648;28;20223;-84
2022/05/04 06:45:16;;;;;;;3.30;1.30;;;23.30;60.30;;;;;;5071985;28;20225;-78
2022/05/04 06:47:44;;;;;;;2.10;1.50;;;23.30;60.50;;;;;;5069959;28;20179;-82
2022/05/04 06:50:12;;;;;;;7.60;2.53;;;23.20;60.90;;;;;;5072354;28;20179;-82
2022/05/04 06:52:40;;;;;;;5.43;2.33;;;23.20;61.20;;;;;;5065757;28;20175;-82
2022/05/04 06:55:09;;;;;;;5.70;1.60;;;23.00;61.20;;;;;;5068035;28;20672;-82
2022/05/04 06:57:36;;;;;;;8.13;1.77;;;22.90;61.20;;;;;;5062172;28;20225;-81
2022/05/04 07:00:05;;;;;;;9.00;2.00;;;22.90;61.10;;;;;;5070931;28;20182;-84
2022/05/04 07:02:33;;;;;;;8.20;1.80;;;22.80;61.10;;;;;;5068499;28;20275;-82
2022/05/04 07:05:04;;;;;;;5.20;1.83;;;22.80;61.20;;;;;;5063156;28;20203;-83
2022/05/04 07:07:32;;;;;;;7.13;2.00;;;22.70;61.50;;;;;;5072765;28;20650;-86
2022/05/04 07:10:00;;;;;;;5.50;1.83;;;22.60;61.70;;;;;;5072019;28;20657;-81
2022/05/04 07:12:28;;;;;;;10.63;1.80;;;22.50;62.00;;;;;;5070884;28;20607;-80
2022/05/04 07:14:58;;;;;;;5.77;1.97;;;22.40;62.10;;;;;;5072788;28;20180;-81
2022/05/04 07:17:26;;;;;;;4.07;1.60;;;22.40;62.30;;;;;;5080354;28;20361;-84
2022/05/04 07:19:54;;;;;;;6.73;1.70;;;22.30;62.50;;;;;;5069523;28;20627;-83
2022/05/04 07:22:24;;;;;;;7.07;1.20;;;22.30;62.50;;;;;;5073183;28;20224;-85
2022/05/04 07:24:52;;;;;;;4.27;1.57;;;22.30;62.90;;;;;;5066955;28;20551;-80
2022/05/04 07:27:19;;;;;;;8.40;1.93;;;22.20;63.30;;;;;;5061576;28;20183;-84
2022/05/04 07:29:47;;;;;;;7.87;1.53;;;22.20;63.80;;;;;;5078486;28;20243;-81
2022/05/04 07:32:15;;;;;;;7.53;1.53;;;22.20;64.20;;;;;;5078675;28;20649;-81
2022/05/04 07:34:43;;;;;;;7.70;2.40;;;22.10;64.50;;;;;;5080690;28;20182;-82
2022/05/04 07:37:10;;;;;;;8.63;1.83;;;22.10;65.10;;;;;;5074972;28;20179;-82
2022/05/04 07:42:26;;;;;;;2.87;1.67;;;22.00;65.80;;;;;;5087852;28;20935;-79
2022/05/04 07:45:03;;;;;;;4.13;1.47;;;21.90;66.40;;;;;;5058353;28;20195;-77
2022/05/04 07:47:33;;;;;;;6.70;1.83;;;21.90;66.90;;;;;;5069134;28;20197;-75
2022/05/04 07:50:01;;;;;;;7.67;2.27;;;21.80;67.50;;;;;;5074526;28;20196;-78
2022/05/04 07:52:28;;;;;;;5.47;2.00;;;21.80;67.90;;;;;;5071535;28;20184;-79
2022/05/04 07:54:56;;;;;;;6.07;2.27;;;21.80;68.50;;;;;;5070690;28;20187;-78
2022/05/04 07:57:24;;;;;;;5.50;1.70;;;21.80;69.10;;;;;;5072288;28;20262;-78
2022/05/04 08:05:26;;;;;;;10.83;2.10;;;21.80;70.20;;;;;;5071966;28;20275;-77
2022/05/04 08:07:54;;;;;;;7.27;2.10;;;21.70;70.50;;;;;;5071569;28;20702;-77
2022/05/04 08:10:21;;;;;;;5.70;1.80;;;21.70;70.70;;;;;;5065205;28;20187;-78
2022/05/04 08:12:49;;;;;;;11.40;2.23;;;21.70;70.90;;;;;;5080255;28;20190;-78
2022/05/04 08:15:16;;;;;;;7.00;2.27;;;21.70;71.30;;;;;;5089056;28;20190;-77
2022/05/04 08:17:43;;;;;;;9.73;2.60;;;21.70;71.80;;;;;;5068009;28;20182;-77
2022/05/04 08:20:11;;;;;;;12.73;2.53;;;21.60;72.00;;;;;;5080492;28;20324;-77
2022/05/04 08:22:39;;;;;;;10.23;2.67;;;21.60;71.80;;;;;;5060444;28;20202;-77
2022/05/04 08:25:06;;;;;;;7.43;2.03;;;21.50;72.00;;;;;;5067443;28;20206;-77
2022/05/04 08:27:33;;;;;;;7.17;2.40;;;21.50;72.10;;;;;;5071409;28;20187;-77
2022/05/04 08:30:01;;;;;;;6.30;2.20;;;21.40;72.40;;;;;;5072112;28;20167;-78
2022/05/04 08:32:31;;;;;;;4.87;2.13;;;21.40;72.50;;;;;;5072835;28;20206;-77
2022/05/04 08:34:59;;;;;;;7.27;2.40;;;21.30;72.60;;;;;;5070211;28;20179;-78
2022/05/04 08:37:28;;;;;;;6.87;2.20;;;21.30;72.90;;;;;;5060277;28;20646;-78
2022/05/04 08:39:56;;;;;;;6.23;2.37;;;21.30;73.00;;;;;;5071404;28;20275;-78
2022/05/04 08:42:24;;;;;;;7.30;2.73;;;21.30;73.20;;;;;;5090526;28;20301;-78
2022/05/04 08:44:57;;;;;;;8.90;2.47;;;21.20;73.10;;;;;;5080415;28;20203;-78
2022/05/04 08:47:29;;;;;;;8.27;2.50;;;21.20;72.80;;;;;;5069298;28;20184;-78
2022/05/04 08:49:56;;;;;;;4.80;2.50;;;21.20;72.90;;;;;;5072420;28;20183;-78
2022/05/04 08:52:26;;;;;;;7.13;2.33;;;21.20;73.00;;;;;;5073366;28;20195;-78
2022/05/04 08:54:54;;;;;;;3.60;2.13;;;21.20;73.20;;;;;;5086009;28;20259;-77
2022/05/04 08:57:22;;;;;;;5.77;2.37;;;21.20;73.10;;;;;;5071567;28;20289;-78
2022/05/04 08:59:49;;;;;;;10.40;2.63;;;21.20;73.20;;;;;;5066661;28;20275;-78
2022/05/04 09:02:17;;;;;;;10.80;2.67;;;21.20;73.10;;;;;;5061766;28;20262;-78
2022/05/04 09:04:45;;;;;;;9.33;2.80;;;21.20;73.20;;;;;;5075556;28;20238;-78
2022/05/04 09:07:26;;;;;;;10.37;2.93;;;21.20;73.20;;;;;;5075606;28;20175;-77
2022/05/04 09:09:54;;;;;;;7.57;2.37;;;21.20;73.40;;;;;;5072169;28;20300;-78
2022/05/04 09:12:21;;;;;;;7.77;2.87;;;21.20;73.70;;;;;;5074135;28;20581;-78
2022/05/04 09:14:49;;;;;;;6.90;2.60;;;21.20;73.90;;;;;;5073865;28;20189;-78
2022/05/04 09:17:17;;;;;;;6.40;2.47;;;21.20;74.00;;;;;;5078011;28;20687;-78
2022/05/04 09:22:40;;;;;;;6.07;2.30;;;21.30;74.00;;;;;;5067148;28;20589;-79
2022/05/04 09:25:20;;;;;;;5.70;2.93;;;21.20;73.90;;;;;;5074515;28;20566;-78
2022/05/04 09:27:48;;;;;;;8.83;3.40;;;21.20;73.70;;;;;;5073439;28;20183;-78
2022/05/04 09:30:16;;;;;;;8.70;3.13;;;21.20;73.60;;;;;;5071404;28;20178;-78
2022/05/04 09:32:44;;;;;;;9.10;2.80;;;21.20;73.50;;;;;;5059533;28;20609;-78
2022/05/04 09:35:15;;;;;;;4.20;1.93;;;21.20;73.30;;;;;;5067000;28;20271;-78
2022/05/04 09:46:10;;;;;;;9.73;2.67;;;21.30;72.20;;;;;;5065443;28;20210;-77
2022/05/04 09:48:38;;;;;;;6.43;2.63;;;21.30;72.00;;;;;;5055167;28;20268;-77
2022/05/04 09:51:09;;;;;;;5.17;2.30;;;21.30;72.20;;;;;;5073760;28;20191;-77
2022/05/04 09:53:38;;;;;;;6.27;2.37;;;21.30;71.70;;;;;;5055313;28;20214;-78
2022/05/04 09:56:07;;;;;;;5.93;2.60;;;21.30;71.70;;;;;;5054960;28;20174;-78
2022/05/04 09:58:35;;;;;;;5.90;2.50;;;21.30;71.90;;;;;;5086361;28;20541;-77
2022/05/04 10:01:04;;;;;;;5.30;2.40;;;21.30;71.60;;;;;;5079685;28;20262;-79
2022/05/04 10:03:32;;;;;;;5.60;2.50;;;21.30;71.90;;;;;;5074455;28;20167;-79
2022/05/04 10:06:02;;;;;;;5.50;2.17;;;21.30;71.30;;;;;;5060244;28;20215;-78
2022/05/04 10:08:29;;;;;;;5.40;2.50;;;21.20;71.60;;;;;;5074373;28;20217;-79
2022/05/04 10:10:57;;;;;;;5.73;2.20;;;21.30;71.90;;;;;;5070929;28;20194;-78
2022/05/04 10:13:28;;;;;;;5.20;2.03;;;21.20;71.90;;;;;;5088206;28;20182;-78
2022/05/04 10:15:57;;;;;;;5.37;3.10;;;21.20;71.80;;;;;;5095026;28;20166;-79
2022/05/04 10:18:31;;;;;;;7.47;2.60;;;21.20;71.90;;;;;;5095218;28;20167;-79
2022/05/04 10:21:07;;;;;;;6.27;2.23;;;21.20;71.70;;;;;;5072022;28;20576;-79
2022/05/04 10:23:40;;;;;;;6.10;2.53;;;21.20;71.70;;;;;;5073752;28;20657;-78
2022/05/04 10:26:07;;;;;;;6.17;2.60;;;21.20;71.90;;;;;;5075005;28;20206;-78
2022/05/04 10:28:38;;;;;;;6.40;2.63;;;21.20;71.80;;;;;;5074919;28;20164;-78
2022/05/04 10:31:12;;;;;;;10.57;2.67;;;21.20;72.00;;;;;;5072000;28;20188;-78
2022/05/04 10:33:48;;;;;;;8.40;3.03;;;21.20;71.80;;;;;;5076408;28;20262;-79
2022/05/04 10:36:20;;;;;;;5.33;2.63;;;21.20;72.00;;;;;;5054185;28;20172;-79
2022/05/04 10:38:55;;;;;;;6.37;2.70;;;21.10;72.00;;;;;;5083887;28;20187;-79
2022/05/04 10:41:35;;;;;;;6.00;2.43;;;21.10;72.20;;;;;;5086790;28;20171;-79
2022/05/04 10:44:03;;;;;;;10.20;2.40;;;21.20;72.60;;;;;;5065159;28;20303;-77
2022/05/04 10:46:33;;;;;;;8.33;2.60;;;21.10;72.50;;;;;;5074190;28;20199;-77
2022/05/04 10:49:07;;;;;;;8.30;2.70;;;21.00;72.70;;;;;;5074286;28;20661;-78
2022/05/04 10:51:39;;;;;;;10.27;2.50;;;21.00;72.70;;;;;;5078503;28;20175;-77
2022/05/04 10:54:09;;;;;;;8.47;2.30;;;21.00;72.80;;;;;;5058013;28;20180;-79
2022/05/04 10:56:44;;;;;;;6.50;2.53;;;21.00;73.00;;;;;;5069518;28;20536;-77
2022/05/04 10:59:13;;;;;;;8.63;2.27;;;21.00;72.90;;;;;;5056281;28;20262;-79
2022/05/04 11:01:41;;;;;;;6.40;2.40;;;20.90;72.90;;;;;;5074072;28;20159;-79
2022/05/04 11:04:18;;;;;;;6.30;2.60;;;20.90;72.90;;;;;;5080368;28;20269;-78
2022/05/04 11:06:54;;;;;;;6.77;2.57;;;20.90;72.30;;;;;;5091942;28;20747;-79
2022/05/04 11:09:31;;;;;;;6.87;2.40;;;20.90;72.50;;;;;;5067705;28;20171;-79
2022/05/04 11:12:03;;;;;;;6.87;2.77;;;20.90;72.50;;;;;;5051848;28;20180;-78
2022/05/04 11:14:33;;;;;;;10.13;2.27;;;20.90;72.20;;;;;;5056901;28;20229;-79
2022/05/04 11:17:03;;;;;;;3.83;1.53;;;20.90;71.70;;;;;;5071850;28;20547;-78
2022/05/04 11:19:34;;;;;;;3.90;1.83;;;20.90;71.60;;;;;;5079524;28;20189;-78
2022/05/04 11:22:02;;;;;;;4.90;2.10;;;20.90;71.40;;;;;;5059195;28;20631;-75
2022/05/04 11:24:30;;;;;;;7.33;1.80;;;20.90;71.00;;;;;;5072157;28;20305;-74
2022/05/04 11:26:58;;;;;;;4.90;2.00;;;20.90;70.50;;;;;;5071960;28;20171;-76
2022/05/04 11:29:27;;;;;;;5.10;1.83;;;20.90;70.40;;;;;;5052881;28;20176;-77
2022/05/04 11:31:56;;;;;;;6.03;2.00;;;20.90;70.70;;;;;;5052803;28;20262;-77
2022/05/04 11:34:23;;;;;;;8.50;2.27;;;20.90;70.80;;;;;;5070092;28;20180;-77
2022/05/04 11:36:53;;;;;;;7.13;2.23;;;20.90;70.50;;;;;;5088330;28;20274;-79
2022/05/04 11:39:22;;;;;;;3.50;1.80;;;20.80;70.60;;;;;;5072360;28;20182;-79
2022/05/04 11:41:51;;;;;;;4.87;1.80;;;20.80;70.60;;;;;;5078058;28;20266;-79
2022/05/04 11:44:23;;;;;;;9.50;2.10;;;20.80;70.90;;;;;;5071111;28;20179;-78
2022/05/04 11:46:53;;;;;;;4.90;2.47;;;20.70;70.90;;;;;;5069525;28;20267;-78
2022/05/04 11:49:22;;;;;;;3.83;2.17;;;20.70;71.20;;;;;;5081099;28;20203;-78
2022/05/04 11:51:50;;;;;;;4.77;1.93;;;20.70;71.40;;;;;;5058057;28;20194;-78
2022/05/04 11:54:18;;;;;;;8.20;2.43;;;20.60;71.50;;;;;;5086147;28;20178;-79
2022/05/04 11:56:46;;;;;;;5.07;2.07;;;20.60;71.90;;;;;;5079593;28;20638;-78
2022/05/04 11:59:14;;;;;;;7.27;2.27;;;20.60;71.40;;;;;;5052600;28;20250;-79
2022/05/04 12:01:42;;;;;;;7.43;1.93;;;20.60;71.30;;;;;;5069423;28;20186;-79
2022/05/04 12:04:11;;;;;;;5.57;2.03;;;20.60;71.60;;;;;;5072243;28;20184;-78
2022/05/04 12:06:41;;;;;;;8.57;1.70;;;20.60;71.20;;;;;;5081028;28;20723;-79
2022/05/04 12:09:08;;;;;;;4.97;1.90;;;20.60;70.80;;;;;;5052372;28;20187;-77
2022/05/04 12:11:36;;;;;;;2.60;1.70;;;20.70;70.40;;;;;;5090244;28;20186;-77
2022/05/04 12:14:03;;;;;;;6.07;1.67;;;20.70;69.90;;;;;;5089894;28;20192;-80
2022/05/04 12:16:31;;;;;;;5.37;1.77;;;20.80;69.40;;;;;;5078981;28;20184;-78
2022/05/04 12:18:59;;;;;;;3.67;1.60;;;20.70;69.40;;;;;;5083858;28;20259;-78
2022/05/04 12:21:26;;;;;;;7.70;2.03;;;20.70;69.60;;;;;;5077404;28;20176;-79
2022/05/04 12:23:55;;;;;;;7.27;2.20;;;20.70;70.00;;;;;;5065131;28;20182;-79
2022/05/04 12:26:23;;;;;;;5.83;1.90;;;20.60;70.20;;;;;;5067053;28;20618;-79
2022/05/04 12:34:24;;;;;;;5.37;1.90;;;20.50;70.90;;;;;;5066529;28;20565;-78
2022/05/04 12:36:52;;;;;;;10.00;1.90;;;20.50;71.30;;;;;;5076691;28;20250;-78
2022/05/04 12:39:23;;;;;;;6.93;2.03;;;20.50;71.10;;;;;;5070566;28;20186;-79
2022/05/04 12:41:54;;;;;;;7.93;1.70;;;20.50;71.10;;;;;;5068337;28;20178;-78
2022/05/04 12:44:21;;;;;;;4.97;2.17;;;20.40;71.40;;;;;;5056772;28;20191;-79
2022/05/04 12:46:57;;;;;;;5.20;1.43;;;20.50;70.80;;;;;;5071422;28;20213;-78
2022/05/04 12:49:25;;;;;;;4.97;1.60;;;20.50;70.70;;;;;;5076307;28;20224;-77
2022/05/04 12:51:54;;;;;;;5.07;1.70;;;20.60;70.20;;;;;;5072230;28;20187;-78
2022/05/04 12:54:22;;;;;;;3.73;1.70;;;20.70;70.00;;;;;;5074251;28;20222;-77
2022/05/04 12:56:50;;;;;;;3.73;1.47;;;20.80;69.70;;;;;;5064115;28;20646;-77
2022/05/04 12:59:19;;;;;;;2.93;1.30;;;20.80;69.60;;;;;;5072411;28;20202;-77
2022/05/04 13:01:47;;;;;;;5.93;1.77;;;20.80;69.70;;;;;;5075398;28;20675;-76
2022/05/04 13:04:15;;;;;;;4.67;1.67;;;20.80;69.30;;;;;;5074972;28;20184;-77
2022/05/04 13:06:43;;;;;;;3.70;1.50;;;20.80;69.20;;;;;;5070297;28;20211;-77
2022/05/04 13:09:11;;;;;;;4.10;1.30;;;20.90;68.70;;;;;;5073585;28;20244;-77
2022/05/04 13:11:40;;;;;;;4.97;1.27;;;20.90;68.90;;;;;;5074330;28;20186;-77
2022/05/04 13:14:07;;;;;;;3.67;1.10;;;21.00;68.30;;;;;;5069103;28;20182;-77
2022/05/04 13:16:36;;;;;;;2.67;1.33;;;21.00;68.50;;;;;;5069041;28;20239;-78
2022/05/04 13:19:04;;;;;;;5.33;1.47;;;20.90;68.50;;;;;;5073663;28;20224;-77
2022/05/04 13:21:35;;;;;;;4.50;1.40;;;20.90;68.40;;;;;;5071156;28;20634;-77
2022/05/04 13:24:04;;;;;;;4.80;1.30;;;21.10;68.10;;;;;;5073593;28;20218;-76
2022/05/04 13:26:31;;;;;;;5.90;1.47;;;21.00;68.20;;;;;;5075016;28;20211;-77
2022/05/04 13:28:58;;;;;;;3.03;1.60;;;21.10;68.50;;;;;;5065627;28;20198;-77
2022/05/04 13:31:26;;;;;;;5.50;1.70;;;21.00;69.10;;;;;;5066732;28;20216;-77
2022/05/04 13:33:54;;;;;;;3.53;1.83;;;20.90;69.80;;;;;;5072105;28;20188;-77
2022/05/04 13:36:23;;;;;;;8.97;1.60;;;20.90;70.00;;;;;;5074625;28;20262;-77